Time;durP1;ratioP1;P1;durP2;ratioP2;P2;SDS_P1;SDS_P2;PMS_P1;PMS_P2;Temp;Humidity;BMP_temperature;BMP_pressure;BME280_temperature;BME280_humidity;BME280_pressure;Samples;Min_cycle;Max_cycle;Signal;HPM_P1;HPM_P2
2022/11/11 00:00:24;;;;;;;22.00;17.33;;;;;;;14.63;56.27;102354.00;5008870;28;20868;-78
2022/11/11 00:02:50;;;;;;;24.10;17.97;;;;;;;14.63;56.40;102356.69;4973664;28;20406;-79
2022/11/11 00:05:16;;;;;;;24.23;17.33;;;;;;;14.70;56.56;102350.56;4977240;28;20383;-79
2022/11/11 00:07:42;;;;;;;22.27;17.42;;;;;;;14.76;56.50;102346.41;4967913;28;20456;-79
2022/11/11 00:10:09;;;;;;;23.55;17.33;;;;;;;14.87;56.59;102343.50;4963999;28;20418;-78
2022/11/11 00:12:35;;;;;;;24.20;17.48;;;;;;;14.85;56.28;102348.13;4967108;28;20420;-79
2022/11/11 00:15:00;;;;;;;25.45;18.60;;;;;;;14.90;56.46;102340.50;4974147;28;20396;-78
2022/11/11 00:25:40;;;;;;;23.37;18.87;;;;;;;15.07;56.47;102316.53;4972371;28;20530;-78
2022/11/11 00:28:06;;;;;;;25.40;19.47;;;;;;;15.08;56.41;102324.38;4972832;28;20972;-78
2022/11/11 00:30:31;;;;;;;23.57;18.20;;;;;;;15.09;56.58;102326.06;4998249;28;20395;-78
2022/11/11 00:32:57;;;;;;;24.88;19.27;;;;;;;15.06;56.62;102331.72;4972943;28;20459;-78
2022/11/11 00:38:09;;;;;;;24.15;18.55;;;;;;;15.08;56.84;102337.75;4972169;28;20387;-78
2022/11/11 00:40:35;;;;;;;30.95;19.00;;;;;;;15.04;56.92;102330.22;4974354;28;20392;-78
2022/11/11 00:43:00;;;;;;;23.50;18.27;;;;;;;15.09;57.03;102336.75;4974613;28;20405;-79
2022/11/11 00:45:25;;;;;;;24.00;18.10;;;;;;;15.18;56.66;102334.97;4973867;28;20753;-78
2022/11/11 00:53:24;;;;;;;19.52;15.32;;;;;;;15.21;56.93;102323.09;4976128;28;20478;-79
2022/11/11 00:55:50;;;;;;;21.27;15.85;;;;;;;15.22;57.00;102325.63;4976796;28;20407;-79
2022/11/11 00:58:15;;;;;;;18.92;15.00;;;;;;;15.29;57.03;102326.66;4961919;28;20415;-78
2022/11/11 01:00:42;;;;;;;21.70;14.83;;;;;;;15.31;56.83;102323.81;5007248;28;20396;-79
2022/11/11 01:03:08;;;;;;;20.25;13.95;;;;;;;15.31;56.88;102321.16;5007975;28;20391;-79
2022/11/11 01:05:36;;;;;;;18.35;13.70;;;;;;;15.30;56.89;102324.81;5007720;28;20550;-79
2022/11/11 01:08:02;;;;;;;17.88;13.10;;;;;;;15.23;56.94;102311.28;4976750;28;20391;-79
2022/11/11 01:10:42;;;;;;;15.30;12.02;;;;;;;15.23;56.84;102297.06;4975954;28;20399;-78
2022/11/11 01:13:15;;;;;;;15.23;11.75;;;;;;;15.25;56.69;102297.72;5006719;28;20414;-78
2022/11/11 01:15:44;;;;;;;14.23;11.67;;;;;;;15.28;56.54;102300.09;4988216;28;20393;-79
2022/11/11 01:18:12;;;;;;;13.15;10.77;;;;;;;15.27;56.49;102296.59;4974039;28;20891;-79
2022/11/11 01:20:37;;;;;;;15.38;11.13;;;;;;;15.30;56.32;102295.41;4962825;28;20447;-79
2022/11/11 01:23:04;;;;;;;14.77;11.10;;;;;;;15.29;56.29;102302.59;4975581;28;20392;-79
2022/11/11 01:25:32;;;;;;;15.13;10.40;;;;;;;15.27;55.99;102312.63;4974579;28;20888;-78
2022/11/11 01:27:58;;;;;;;13.35;9.82;;;;;;;15.22;56.28;102309.59;4974818;28;20396;-78
2022/11/11 01:30:23;;;;;;;11.57;9.63;;;;;;;15.16;56.14;102307.56;4974949;28;20402;-79
2022/11/11 01:32:49;;;;;;;12.57;9.90;;;;;;;15.17;56.20;102303.06;4975828;28;20498;-80
2022/11/11 01:35:14;;;;;;;12.23;9.23;;;;;;;15.21;55.81;102301.72;5002065;28;20410;-79
2022/11/11 01:37:40;;;;;;;11.90;8.73;;;;;;;15.11;55.92;102301.88;4978038;28;20391;-79
2022/11/11 01:40:06;;;;;;;10.53;8.60;;;;;;;15.13;55.58;102294.53;4976146;28;20404;-80
2022/11/11 01:43:04;;;;;;;12.00;8.68;;;;;;;15.20;55.30;102302.75;4975500;28;20490;-79
2022/11/11 01:46:10;;;;;;;11.43;8.82;;;;;;;15.23;55.45;102297.06;4978016;28;20403;-79
2022/11/11 01:49:19;;;;;;;11.00;8.73;;;;;;;15.29;54.96;102307.13;4965616;28;20400;-79
2022/11/11 01:51:56;;;;;;;12.48;8.65;;;;;;;15.24;54.97;102320.94;4970692;28;20396;-79
2022/11/11 01:54:51;;;;;;;11.10;8.15;;;;;;;15.22;55.14;102314.94;4973131;28;20415;-79
2022/11/11 01:57:24;;;;;;;10.43;8.13;;;;;;;15.13;55.21;102313.22;4974537;28;20407;-79
2022/11/11 01:59:59;;;;;;;10.33;8.00;;;;;;;15.15;54.99;102310.41;4973851;28;20403;-79
2022/11/11 02:02:48;;;;;;;11.63;8.48;;;;;;;15.21;54.81;102299.88;4974412;28;20395;-78
2022/11/11 02:08:08;;;;;;;10.70;8.23;;;;;;;15.11;54.99;102299.22;4971721;28;20546;-77
2022/11/11 02:10:34;;;;;;;10.98;8.25;;;;;;;15.13;55.17;102307.06;4959569;28;20406;-78
2022/11/11 02:15:44;;;;;;;10.13;8.13;;;;;;;15.13;54.78;102315.06;4967745;28;20446;-78
2022/11/11 02:18:10;;;;;;;12.00;9.50;;;;;;;15.19;54.72;102322.44;4969730;28;20397;-77
2022/11/11 02:20:38;;;;;;;10.70;7.75;;;;;;;15.13;54.85;102331.09;4968253;28;20403;-78
2022/11/11 02:23:13;;;;;;;11.93;7.65;;;;;;;15.01;55.15;102328.69;4965948;28;20392;-78
2022/11/11 02:25:42;;;;;;;10.68;8.52;;;;;;;15.17;54.83;102335.13;4957250;28;20548;-78
2022/11/11 02:28:09;;;;;;;10.43;7.93;;;;;;;15.08;54.86;102340.41;4968037;28;20403;-77
2022/11/11 02:30:34;;;;;;;10.98;8.52;;;;;;;15.12;54.70;102346.28;4972704;28;20407;-78
2022/11/11 02:33:00;;;;;;;12.00;8.33;;;;;;;15.11;54.56;102347.28;4973284;28;20907;-78
2022/11/11 02:35:42;;;;;;;12.33;8.23;;;;;;;15.31;54.07;102350.53;4967137;28;20883;-78
2022/11/11 02:38:10;;;;;;;11.07;8.00;;;;;;;15.20;54.25;102356.19;4957881;28;20385;-78
2022/11/11 02:41:55;;;;;;;10.25;7.78;;;;;;;15.10;54.77;102362.44;4958989;28;20698;-78
2022/11/11 02:43:32;;;;;;;11.55;8.52;;;;;;;15.15;54.77;102362.00;4969390;28;20399;-78
2022/11/11 02:46:00;;;;;;;9.60;7.75;;;;;;;15.23;54.44;102362.03;4961883;28;20462;-79
2022/11/11 02:48:26;;;;;;;10.10;7.65;;;;;;;15.31;54.35;102357.72;4972524;28;20395;-78
2022/11/11 02:50:52;;;;;;;9.57;7.68;;;;;;;15.46;54.00;102358.75;5001140;28;20495;-78
2022/11/11 02:53:17;;;;;;;10.77;8.13;;;;;;;15.44;53.73;102353.56;4971993;28;20415;-78
2022/11/11 02:55:43;;;;;;;9.93;7.65;;;;;;;15.47;53.88;102358.59;4974611;28;20473;-78
2022/11/11 02:58:12;;;;;;;9.47;8.17;;;;;;;15.46;53.72;102359.59;4963204;28;20747;-78
2022/11/11 03:00:38;;;;;;;11.70;8.00;;;;;;;15.50;53.61;102365.44;5000324;28;20774;-78
2022/11/11 03:03:03;;;;;;;9.80;7.73;;;;;;;15.51;53.44;102367.13;4972189;28;20411;-78
2022/11/11 03:05:29;;;;;;;9.55;7.47;;;;;;;15.32;53.67;102364.72;4969822;28;20399;-78
2022/11/11 03:07:54;;;;;;;9.93;7.47;;;;;;;15.14;54.20;102370.97;4968911;28;20765;-78
2022/11/11 03:10:20;;;;;;;13.20;7.38;;;;;;;15.06;54.34;102365.63;4974220;28;20465;-77
2022/11/11 03:12:45;;;;;;;9.13;7.00;;;;;;;14.97;54.57;102369.25;4972706;28;20909;-78
2022/11/11 03:15:10;;;;;;;8.20;7.25;;;;;;;14.98;54.61;102373.56;4965989;28;20419;-79
2022/11/11 03:17:39;;;;;;;8.37;6.87;;;;;;;15.04;54.28;102379.13;4971935;28;20437;-78
2022/11/11 03:23:03;;;;;;;9.33;6.67;;;;;;;15.07;54.54;102389.50;4974037;28;20437;-79
2022/11/11 03:25:38;;;;;;;9.00;6.97;;;;;;;15.14;54.16;102396.88;5006306;28;20399;-79
2022/11/11 03:28:11;;;;;;;9.80;7.28;;;;;;;15.13;54.31;102392.53;4976932;28;20817;-78
2022/11/11 03:30:38;;;;;;;9.07;7.20;;;;;;;15.12;54.13;102394.34;4963775;28;20391;-79
2022/11/11 03:33:04;;;;;;;7.93;7.00;;;;;;;15.22;54.27;102388.91;4972216;28;20415;-79
2022/11/11 03:35:30;;;;;;;9.15;7.45;;;;;;;15.22;54.02;102387.06;4965564;28;20465;-79
2022/11/11 03:38:14;;;;;;;10.75;9.63;;;;;;;15.16;54.36;102392.19;4975530;28;20399;-78
2022/11/11 03:40:44;;;;;;;9.70;6.90;;;;;;;14.94;54.96;102391.75;4971286;28;20410;-78
2022/11/11 03:43:11;;;;;;;7.93;6.40;;;;;;;14.86;55.05;102400.53;4972326;28;20396;-78
2022/11/11 03:45:36;;;;;;;7.83;6.50;;;;;;;14.72;55.34;102390.44;4958812;28;20400;-78
2022/11/11 03:48:02;;;;;;;10.37;7.07;;;;;;;14.47;56.12;102395.56;4988106;28;20405;-78
2022/11/11 03:50:27;;;;;;;9.57;6.93;;;;;;;14.49;56.23;102406.91;4991149;28;20480;-79
2022/11/11 03:52:53;;;;;;;12.47;8.40;;;;;;;14.57;55.80;102392.81;4969624;28;20411;-79
2022/11/11 03:55:18;;;;;;;13.87;9.40;;;;;;;14.65;55.75;102398.22;4972180;28;20471;-78
2022/11/11 03:57:45;;;;;;;13.87;9.23;;;;;;;14.68;55.55;102399.75;5006203;28;20399;-79
2022/11/11 04:00:13;;;;;;;13.88;9.32;;;;;;;14.68;55.38;102391.75;4983165;28;20392;-78
2022/11/11 04:11:14;;;;;;;8.80;6.70;;;;;;;14.97;54.78;102423.47;4980777;28;20407;-77
2022/11/11 04:16:31;;;;;;;8.48;6.70;;;;;;;14.97;54.79;102430.66;4979303;28;20748;-79
2022/11/11 04:21:43;;;;;;;10.85;8.18;;;;;;;14.75;54.90;102432.84;4967282;28;20905;-78
2022/11/11 04:27:06;;;;;;;17.30;11.35;;;;;;;14.30;55.93;102426.59;4980479;28;20803;-77
2022/11/11 04:29:32;;;;;;;15.65;11.63;;;;;;;14.37;55.48;102426.84;4975007;28;20494;-76
2022/11/11 04:34:50;;;;;;;15.70;11.07;;;;;;;14.20;55.62;102435.66;4982285;28;20487;-79
2022/11/11 04:37:16;;;;;;;16.67;11.77;;;;;;;14.20;55.79;102436.50;4980628;28;20393;-78
2022/11/11 04:42:28;;;;;;;18.75;12.07;;;;;;;14.23;55.71;102451.38;4979873;28;20398;-77
2022/11/11 04:47:38;;;;;;;20.10;13.38;;;;;;;14.21;55.36;102451.53;4978969;28;20457;-78
2022/11/11 04:50:04;;;;;;;20.53;13.77;;;;;;;14.31;54.99;102456.78;4970525;28;20397;-77
2022/11/11 04:52:30;;;;;;;21.33;14.00;;;;;;;14.18;55.53;102454.47;4978636;28;20495;-78
2022/11/11 04:57:47;;;;;;;22.20;14.13;;;;;;;14.04;55.45;102466.50;4980221;28;20410;-79
2022/11/11 05:00:17;;;;;;;21.02;13.77;;;;;;;13.98;56.06;102477.78;4979197;28;20450;-78
2022/11/11 05:08:54;;;;;;;21.35;13.60;;;;;;;13.82;56.19;102477.56;4977699;28;20407;-79
2022/11/11 05:10:58;;;;;;;24.05;15.13;;;;;;;13.80;56.50;102477.72;4980652;28;20422;-78
2022/11/11 05:21:51;;;;;;;23.52;15.63;;;;;;;13.69;56.65;102496.56;4983190;28;20387;-78
2022/11/11 05:27:01;;;;;;;28.05;15.85;;;;;;;13.80;56.30;102500.88;4980072;28;20876;-79
2022/11/11 05:29:26;;;;;;;24.00;16.20;;;;;;;13.89;55.92;102490.16;4983510;28;20399;-79
2022/11/11 05:31:52;;;;;;;24.80;16.60;;;;;;;13.86;55.88;102500.28;4980532;28;20462;-80
2022/11/11 05:34:17;;;;;;;24.53;15.23;;;;;;;13.83;56.32;102500.56;4983405;28;20395;-78
2022/11/11 05:36:43;;;;;;;23.87;15.47;;;;;;;13.60;57.14;102506.28;4981860;28;20508;-79
2022/11/11 05:39:08;;;;;;;25.80;16.47;;;;;;;13.76;56.50;102505.66;5013224;28;20384;-79
2022/11/11 05:41:34;;;;;;;22.15;15.32;;;;;;;13.72;56.25;102504.25;4978931;28;20492;-79
2022/11/11 05:44:00;;;;;;;25.35;15.65;;;;;;;13.75;56.22;102512.81;4977924;28;20385;-78
2022/11/11 05:46:25;;;;;;;26.63;16.63;;;;;;;13.75;56.33;102515.47;4979638;28;20380;-79
2022/11/11 05:51:35;;;;;;;25.08;16.00;;;;;;;13.63;56.98;102518.47;5008103;28;20407;-78
2022/11/11 05:54:00;;;;;;;23.47;15.47;;;;;;;13.78;56.00;102522.34;5006236;28;20474;-80
2022/11/11 05:56:26;;;;;;;23.30;15.17;;;;;;;13.74;56.24;102523.63;4982609;28;20406;-80
2022/11/11 05:58:51;;;;;;;22.77;15.25;;;;;;;13.65;56.41;102525.34;5021706;28;20395;-81
2022/11/11 06:01:17;;;;;;;21.90;14.40;;;;;;;13.68;56.58;102529.53;4980390;28;20399;-80
2022/11/11 06:03:42;;;;;;;25.77;14.85;;;;;;;13.70;56.49;102536.41;4978042;28;20421;-81
2022/11/11 06:06:08;;;;;;;21.45;14.48;;;;;;;13.70;56.38;102532.88;4990719;28;20385;-78
2022/11/11 06:08:33;;;;;;;20.23;13.77;;;;;;;13.75;56.04;102533.28;5011701;28;20418;-78
2022/11/11 06:10:59;;;;;;;23.05;14.98;;;;;;;13.92;55.88;102545.03;4983195;28;20391;-78
2022/11/11 06:13:34;;;;;;;21.37;13.90;;;;;;;13.93;55.59;102536.84;4980223;28;20403;-80
2022/11/11 06:16:01;;;;;;;21.48;14.25;;;;;;;13.96;55.64;102549.06;4990003;28;20399;-80
2022/11/11 06:18:27;;;;;;;22.10;14.00;;;;;;;13.95;55.65;102550.03;4980030;28;20385;-79
2022/11/11 06:20:53;;;;;;;18.77;12.43;;;;;;;13.88;55.83;102557.81;4976014;28;20390;-80
2022/11/11 06:23:19;;;;;;;19.13;13.55;;;;;;;14.07;55.24;102559.53;4979233;28;20405;-80
2022/11/11 06:28:28;;;;;;;19.43;13.17;;;;;;;14.18;54.85;102571.00;4976037;28;20429;-80
2022/11/11 06:30:54;;;;;;;19.73;12.33;;;;;;;14.19;54.75;102573.53;5008083;28;20396;-79
2022/11/11 06:33:20;;;;;;;20.35;13.32;;;;;;;14.32;54.59;102579.34;4980479;28;20406;-79
2022/11/11 06:35:47;;;;;;;19.13;12.68;;;;;;;14.33;54.50;102580.16;4975327;28;20489;-79
2022/11/11 06:38:12;;;;;;;17.87;12.43;;;;;;;14.44;54.38;102577.31;4979794;28;20427;-80
2022/11/11 06:40:38;;;;;;;18.33;12.77;;;;;;;14.53;53.98;102578.22;4992161;28;20380;-78
2022/11/11 06:43:03;;;;;;;18.27;12.85;;;;;;;14.67;53.80;102584.91;4983252;28;20387;-80
2022/11/11 06:45:30;;;;;;;17.27;12.37;;;;;;;14.75;53.73;102571.66;4988990;28;20379;-80
2022/11/11 06:47:56;;;;;;;16.90;11.20;;;;;;;14.72;53.56;102583.47;4989024;28;20383;-79
2022/11/11 06:50:21;;;;;;;16.00;10.95;;;;;;;14.75;53.13;102585.00;4985260;28;20384;-77
2022/11/11 06:52:47;;;;;;;17.98;11.43;;;;;;;14.83;53.17;102593.09;4985544;28;20407;-78
2022/11/11 06:55:13;;;;;;;18.37;11.80;;;;;;;14.96;52.68;102599.88;4978150;28;20475;-78
2022/11/11 06:57:39;;;;;;;15.93;10.20;;;;;;;14.77;53.17;102595.53;4981574;28;20396;-78
2022/11/11 07:00:06;;;;;;;17.73;11.52;;;;;;;14.87;52.74;102593.63;4978083;28;20377;-80
2022/11/11 07:02:32;;;;;;;15.73;10.45;;;;;;;14.93;52.67;102590.34;4979180;28;20367;-79
2022/11/11 07:04:59;;;;;;;19.83;11.50;;;;;;;15.04;52.40;102590.13;4985849;28;20390;-80
2022/11/11 07:07:25;;;;;;;20.40;12.52;;;;;;;15.20;52.05;102602.78;5003224;28;20381;-80
2022/11/11 07:09:50;;;;;;;16.50;10.50;;;;;;;15.03;52.08;102598.28;4975701;28;20495;-78
2022/11/11 07:12:16;;;;;;;19.97;13.17;;;;;;;15.23;51.87;102598.94;4979575;28;20772;-78
2022/11/11 07:14:42;;;;;;;15.60;11.03;;;;;;;15.31;51.42;102591.00;4979608;28;20400;-78
2022/11/11 07:17:08;;;;;;;16.87;10.67;;;;;;;15.24;51.60;102597.97;5008170;28;20509;-78
2022/11/11 07:19:33;;;;;;;15.73;10.30;;;;;;;15.30;51.51;102597.34;4975943;28;20449;-78
2022/11/11 07:21:59;;;;;;;19.60;14.05;;;;;;;15.47;51.21;102601.81;4985533;28;20389;-82
2022/11/11 07:24:24;;;;;;;19.30;12.93;;;;;;;15.26;51.41;102604.00;4981746;28;20908;-78
2022/11/11 07:26:51;;;;;;;41.88;28.27;;;;;;;15.44;51.50;102601.28;4979326;28;20407;-80
2022/11/11 07:29:16;;;;;;;24.77;17.88;;;;;;;15.52;51.11;102603.19;4977211;28;20490;-81
2022/11/11 07:31:42;;;;;;;18.77;10.17;;;;;;;15.58;50.65;102614.09;4974699;28;20391;-81
2022/11/11 07:34:09;;;;;;;20.73;11.95;;;;;;;15.48;50.63;102605.31;5014304;28;20390;-80
2022/11/11 07:36:34;;;;;;;16.98;9.80;;;;;;;15.54;50.22;102612.72;5009830;28;20463;-80
2022/11/11 07:39:00;;;;;;;16.57;10.70;;;;;;;15.45;50.38;102611.84;4983304;28;20388;-80
2022/11/11 07:41:25;;;;;;;17.83;10.70;;;;;;;15.44;50.23;102611.97;5014728;28;20383;-79
2022/11/11 07:43:51;;;;;;;15.40;10.20;;;;;;;15.60;49.95;102596.06;5001723;28;20428;-78
2022/11/11 07:46:17;;;;;;;17.17;9.52;;;;;;;15.56;49.68;102604.56;4980987;28;20399;-79
2022/11/11 07:48:43;;;;;;;15.40;10.23;;;;;;;15.67;49.60;102609.63;5015880;28;20411;-81
2022/11/11 07:51:08;;;;;;;15.82;10.13;;;;;;;15.76;48.74;102605.22;4973289;28;20394;-78
2022/11/11 07:53:34;;;;;;;14.83;10.33;;;;;;;15.81;48.94;102602.88;4977790;28;20415;-79
2022/11/11 07:56:01;;;;;;;15.30;9.90;;;;;;;15.98;48.62;102609.19;4980417;28;20418;-79
2022/11/11 07:58:26;;;;;;;16.07;9.13;;;;;;;16.10;48.20;102615.06;4981052;28;20389;-79
2022/11/11 08:00:52;;;;;;;13.20;8.45;;;;;;;16.10;47.75;102610.59;5008782;28;20399;-77
2022/11/11 08:03:17;;;;;;;13.30;8.97;;;;;;;16.08;47.74;102609.91;5016066;28;20397;-81
2022/11/11 08:05:43;;;;;;;15.60;9.10;;;;;;;16.19;47.70;102604.25;4981884;28;20408;-80
2022/11/11 08:08:09;;;;;;;13.27;9.30;;;;;;;16.31;47.63;102604.78;4973644;28;20413;-78
2022/11/11 08:10:35;;;;;;;11.80;8.23;;;;;;;16.14;47.53;102619.13;4976980;28;20397;-81
2022/11/11 08:15:45;;;;;;;13.57;8.20;;;;;;;16.22;47.21;102620.00;4981815;28;20440;-79
2022/11/11 08:18:11;;;;;;;14.23;8.50;;;;;;;16.14;47.48;102632.50;4990582;28;20830;-80
2022/11/11 08:20:37;;;;;;;11.35;7.88;;;;;;;16.31;47.15;102625.38;5018461;28;20393;-82
2022/11/11 08:23:03;;;;;;;11.63;6.88;;;;;;;16.09;47.40;102629.47;4975320;28;20886;-81
2022/11/11 08:25:31;;;;;;;12.45;7.30;;;;;;;16.10;47.42;102633.81;4990411;28;20380;-81
2022/11/11 08:28:01;;;;;;;12.02;7.93;;;;;;;16.35;47.27;102629.41;4991803;28;20411;-79
2022/11/11 08:30:27;;;;;;;9.73;7.25;;;;;;;16.35;46.94;102635.63;5019416;28;20387;-80
2022/11/11 08:33:11;;;;;;;9.33;7.23;;;;;;;16.22;47.05;102645.91;4986536;28;20471;-78
2022/11/11 08:35:37;;;;;;;10.40;7.30;;;;;;;16.28;46.78;102636.41;4988539;28;20760;-80
2022/11/11 08:38:02;;;;;;;11.73;8.23;;;;;;;16.48;46.62;102639.69;4985384;28;20387;-79
2022/11/11 08:40:28;;;;;;;12.43;7.70;;;;;;;16.67;46.18;102646.59;4986883;28;20414;-80
2022/11/11 08:42:58;;;;;;;11.20;7.90;;;;;;;16.70;46.15;102639.06;4984365;28;20417;-78
2022/11/11 08:45:24;;;;;;;12.32;8.75;;;;;;;16.78;46.01;102640.91;5028529;28;20395;-81
2022/11/11 08:47:51;;;;;;;13.25;8.13;;;;;;;16.72;46.21;102637.06;4975462;28;20388;-80
2022/11/11 08:50:17;;;;;;;11.88;7.70;;;;;;;16.75;45.99;102644.78;4987849;28;20394;-79
2022/11/11 08:52:47;;;;;;;11.98;7.82;;;;;;;16.88;45.94;102640.81;4986580;28;20471;-78
2022/11/11 08:55:12;;;;;;;10.30;7.75;;;;;;;17.00;45.73;102639.50;5016913;28;20407;-81
2022/11/11 08:57:38;;;;;;;9.95;7.55;;;;;;;16.88;45.67;102641.66;5019355;28;20380;-80
2022/11/11 09:00:04;;;;;;;11.63;7.70;;;;;;;16.86;45.96;102640.97;4984852;28;20724;-80
2022/11/11 09:02:30;;;;;;;9.88;7.00;;;;;;;16.86;45.75;102654.38;4987499;28;20375;-79
2022/11/11 09:04:55;;;;;;;12.20;7.80;;;;;;;17.03;45.43;102652.53;5016793;28;20394;-80
2022/11/11 09:07:22;;;;;;;10.13;7.70;;;;;;;17.21;45.28;102644.34;5017937;28;20419;-78
2022/11/11 09:09:47;;;;;;;10.55;8.10;;;;;;;17.22;45.36;102643.38;4988870;28;20379;-79
2022/11/11 09:12:13;;;;;;;14.07;8.20;;;;;;;17.21;45.36;102644.34;5020937;28;20410;-82
2022/11/11 09:14:38;;;;;;;9.68;7.10;;;;;;;17.16;44.97;102647.56;5022551;28;20406;-80
2022/11/11 09:17:05;;;;;;;10.23;6.93;;;;;;;16.91;45.40;102648.53;5022003;28;20398;-80
2022/11/11 09:19:31;;;;;;;12.15;8.32;;;;;;;17.17;45.22;102635.00;5021785;28;20380;-79
2022/11/11 09:21:56;;;;;;;11.32;8.25;;;;;;;17.32;45.09;102630.66;4987612;28;20473;-81
2022/11/11 09:24:26;;;;;;;12.13;9.33;;;;;;;17.59;44.82;102633.94;4990813;28;20403;-83
2022/11/11 09:26:52;;;;;;;13.00;9.35;;;;;;;17.65;44.37;102635.97;5010756;28;20452;-79
2022/11/11 09:29:18;;;;;;;11.20;8.30;;;;;;;17.53;44.39;102631.97;4985706;28;20403;-82
2022/11/11 09:31:44;;;;;;;10.30;7.87;;;;;;;17.53;44.59;102626.59;4984546;28;20399;-79
2022/11/11 09:34:10;;;;;;;11.52;8.23;;;;;;;17.87;43.99;102625.56;5001453;28;20454;-79
2022/11/11 09:36:35;;;;;;;12.20;8.07;;;;;;;17.59;44.07;102620.53;4988661;28;21085;-80
2022/11/11 09:39:01;;;;;;;11.82;8.75;;;;;;;17.58;44.03;102618.88;5019058;28;20384;-79
2022/11/11 09:41:51;;;;;;;11.77;7.60;;;;;;;17.75;43.84;102603.59;4986062;28;20408;-78
2022/11/11 09:44:19;;;;;;;13.90;8.23;;;;;;;17.87;43.35;102612.16;5012357;28;20408;-78
2022/11/11 09:46:59;;;;;;;10.73;8.18;;;;;;;17.99;42.89;102604.56;4971940;28;20739;-80
2022/11/11 09:49:33;;;;;;;12.70;8.98;;;;;;;18.03;43.06;102608.59;4975281;28;20448;-80
2022/11/11 09:52:20;;;;;;;10.80;7.95;;;;;;;17.94;42.84;102607.78;4973725;28;20399;-79
2022/11/11 09:54:54;;;;;;;12.32;8.35;;;;;;;18.02;43.10;102599.69;5012648;28;20403;-79
2022/11/11 09:57:35;;;;;;;10.80;8.20;;;;;;;18.10;43.20;102599.66;4976304;28;20390;-81
2022/11/11 10:00:05;;;;;;;13.70;8.63;;;;;;;18.24;42.47;102592.75;4970387;28;20383;-80
2022/11/11 10:02:46;;;;;;;10.93;8.68;;;;;;;18.08;42.64;102599.00;5023482;28;20399;-77
2022/11/11 10:05:35;;;;;;;11.70;8.10;;;;;;;18.10;42.11;102586.25;4982627;28;20757;-78
2022/11/11 10:08:12;;;;;;;11.35;8.15;;;;;;;18.01;42.47;102589.97;5012122;28;20467;-78
2022/11/11 10:10:48;;;;;;;12.30;8.18;;;;;;;18.03;42.58;102589.81;4981613;28;20387;-78
2022/11/11 10:13:27;;;;;;;12.25;9.38;;;;;;;18.06;42.42;102597.50;4975852;28;20424;-79
2022/11/11 10:16:06;;;;;;;13.93;10.90;;;;;;;18.13;42.44;102585.91;4978161;28;20386;-78
2022/11/11 10:18:41;;;;;;;11.67;8.37;;;;;;;18.20;42.18;102594.06;4975610;28;20389;-79
2022/11/11 10:21:27;;;;;;;10.77;7.40;;;;;;;18.05;41.80;102585.94;4981305;28;20390;-79
2022/11/11 10:23:57;;;;;;;12.32;9.02;;;;;;;18.22;42.17;102588.53;4984211;28;20415;-77
2022/11/11 10:26:36;;;;;;;12.07;9.77;;;;;;;18.26;42.32;102582.66;4986944;28;20979;-79
2022/11/11 10:29:04;;;;;;;13.00;8.63;;;;;;;18.24;42.19;102595.41;4983194;28;20867;-82
2022/11/11 10:31:29;;;;;;;12.70;8.60;;;;;;;18.09;42.18;102583.72;5040904;28;20382;-81
2022/11/11 10:34:00;;;;;;;11.30;8.10;;;;;;;18.07;42.12;102591.94;5040574;28;20444;-78
2022/11/11 10:36:27;;;;;;;12.55;8.80;;;;;;;18.10;42.24;102588.09;5027356;28;20390;-79
2022/11/11 10:39:00;;;;;;;13.77;9.88;;;;;;;18.26;42.22;102590.72;5024801;28;20374;-78
2022/11/11 10:41:40;;;;;;;9.40;7.10;;;;;;;18.00;41.76;102580.25;5039715;28;20385;-78
2022/11/11 10:44:24;;;;;;;11.53;8.53;;;;;;;18.12;42.24;102591.44;5029858;28;20383;-79
2022/11/11 10:47:12;;;;;;;11.35;8.00;;;;;;;18.03;41.96;102595.19;5023079;28;20382;-79
2022/11/11 10:49:54;;;;;;;13.10;9.00;;;;;;;18.05;42.01;102593.97;5039073;28;20375;-78
2022/11/11 10:52:28;;;;;;;11.90;8.63;;;;;;;18.07;41.89;102588.44;5042245;28;20536;-78
2022/11/11 10:55:18;;;;;;;11.10;8.15;;;;;;;18.06;41.87;102581.38;5030772;28;20506;-80
2022/11/11 10:58:06;;;;;;;14.90;9.80;;;;;;;18.07;41.84;102586.59;5022899;28;20400;-78
2022/11/11 11:00:34;;;;;;;13.88;9.57;;;;;;;18.07;41.86;102581.22;5039399;28;20480;-80
2022/11/11 11:03:52;;;;;;;14.18;9.68;;;;;;;18.11;41.88;102581.72;4994937;28;20401;-79
2022/11/11 11:06:26;;;;;;;15.30;10.07;;;;;;;18.18;41.88;102574.63;5023084;28;20392;-78
2022/11/11 11:08:58;;;;;;;14.25;8.85;;;;;;;18.19;41.52;102570.13;5019228;28;20474;-79
2022/11/11 11:11:30;;;;;;;14.88;9.48;;;;;;;18.24;41.80;102571.25;4998105;28;20388;-77
2022/11/11 11:14:02;;;;;;;14.95;9.52;;;;;;;18.30;41.55;102580.47;4980298;28;20534;-77
2022/11/11 11:16:34;;;;;;;12.73;8.98;;;;;;;18.00;41.74;102572.19;4981037;28;20418;-79
2022/11/11 11:19:22;;;;;;;11.15;9.10;;;;;;;17.93;41.93;102573.91;4982143;28;20383;-78
2022/11/11 11:21:50;;;;;;;11.52;8.65;;;;;;;17.91;41.78;102570.56;4983283;28;20927;-78
2022/11/11 11:24:31;;;;;;;14.40;10.40;;;;;;;18.00;41.80;102571.38;4981459;28;20427;-79
2022/11/11 11:26:59;;;;;;;13.55;10.00;;;;;;;18.25;41.56;102575.59;4981206;28;20387;-77
2022/11/11 11:29:28;;;;;;;15.60;10.70;;;;;;;18.14;41.59;102576.81;4984227;28;20417;-79
2022/11/11 11:31:55;;;;;;;14.50;9.10;;;;;;;18.12;41.45;102568.13;4985089;28;20383;-80
2022/11/11 11:34:21;;;;;;;15.37;10.13;;;;;;;18.08;41.59;102565.97;4983984;28;20383;-78
2022/11/11 11:37:00;;;;;;;12.47;8.93;;;;;;;18.06;41.34;102565.28;5015920;28;20477;-79
2022/11/11 11:39:36;;;;;;;14.85;9.60;;;;;;;18.02;41.36;102556.75;4984558;28;20487;-79
2022/11/11 11:42:02;;;;;;;12.32;8.30;;;;;;;17.76;41.85;102557.81;4984533;28;20898;-78
2022/11/11 11:44:37;;;;;;;11.77;9.40;;;;;;;17.92;41.92;102556.13;4983151;28;20464;-78
2022/11/11 11:47:10;;;;;;;13.13;9.15;;;;;;;18.18;41.22;102565.75;4984744;28;20379;-79
2022/11/11 11:49:50;;;;;;;13.68;9.80;;;;;;;18.36;40.67;102565.50;4985971;28;20470;-79
2022/11/11 11:52:21;;;;;;;11.77;8.35;;;;;;;18.21;40.66;102558.19;5019490;28;20434;-78
2022/11/11 11:55:05;;;;;;;12.68;8.60;;;;;;;18.30;40.37;102558.97;5011793;28;20404;-78
2022/11/11 11:57:45;;;;;;;16.55;8.70;;;;;;;18.22;40.09;102564.38;4984439;28;20383;-78
2022/11/11 12:00:27;;;;;;;11.88;7.85;;;;;;;18.06;40.38;102562.59;4984843;28;20394;-78
2022/11/11 12:03:27;;;;;;;10.93;8.38;;;;;;;17.96;40.55;102554.78;4987122;28;20383;-79
2022/11/11 12:06:50;;;;;;;11.30;8.27;;;;;;;17.95;41.10;102559.31;4979336;28;20416;-80
2022/11/11 12:09:40;;;;;;;11.77;8.20;;;;;;;17.81;41.80;102565.38;4978613;28;20408;-80
2022/11/11 12:12:27;;;;;;;14.43;9.97;;;;;;;18.19;41.07;102556.69;4971013;28;20402;-78
2022/11/11 12:14:58;;;;;;;14.87;8.83;;;;;;;18.33;40.96;102545.22;4979609;28;20415;-76
2022/11/11 12:17:49;;;;;;;13.50;9.90;;;;;;;18.24;41.29;102552.47;4985342;28;20402;-78
2022/11/11 12:20:25;;;;;;;13.25;8.68;;;;;;;18.13;41.36;102551.00;5012926;28;20425;-78
2022/11/11 12:23:12;;;;;;;12.50;8.85;;;;;;;18.09;41.59;102551.53;4982519;28;20892;-79
2022/11/11 12:26:00;;;;;;;12.05;9.32;;;;;;;18.26;41.60;102555.00;4985420;28;20402;-78
2022/11/11 12:28:28;;;;;;;12.25;9.05;;;;;;;18.21;41.66;102550.13;5020771;28;20375;-77
2022/11/11 12:31:22;;;;;;;13.23;9.68;;;;;;;18.49;41.16;102538.88;4983443;28;20387;-78
2022/11/11 12:34:07;;;;;;;12.18;8.98;;;;;;;18.23;41.65;102547.28;4997767;28;20422;-77
2022/11/11 12:36:41;;;;;;;12.32;9.90;;;;;;;18.42;41.34;102538.78;5012697;28;20404;-78
2022/11/11 12:39:40;;;;;;;14.05;10.07;;;;;;;18.61;41.05;102536.63;4984397;28;20387;-78
2022/11/11 12:42:31;;;;;;;10.32;7.70;;;;;;;18.46;40.95;102523.97;4982467;28;20461;-79
2022/11/11 12:45:13;;;;;;;12.10;9.30;;;;;;;18.47;40.93;102531.00;5016367;28;20477;-78
2022/11/11 12:48:05;;;;;;;10.48;7.82;;;;;;;18.31;40.98;102534.66;4983799;28;20438;-82